Time;durP1;ratioP1;P1;durP2;ratioP2;P2;SDS_P1;SDS_P2;PMS_P1;PMS_P2;Temp;Humidity;BMP_temperature;BMP_pressure;BME280_temperature;BME280_humidity;BME280_pressure;Samples;Min_cycle;Max_cycle;Signal;HPM_P1;HPM_P2
2022/08/21 00:02:22;;;;;;;6.75;4.78;;;20.50;99.90;;;;;;6429979;23;20008;-76
2022/08/21 00:04:53;;;;;;;6.20;4.90;;;20.30;99.90;;;;;;6403634;23;20413;-76
2022/08/21 00:07:25;;;;;;;8.07;5.50;;;20.50;99.90;;;;;;6430242;23;20424;-76
2022/08/21 00:09:56;;;;;;;7.45;5.35;;;20.50;99.90;;;;;;6430502;23;20064;-74
2022/08/21 00:12:27;;;;;;;6.72;4.65;;;20.60;99.90;;;;;;6430520;23;20337;-74
2022/08/21 00:14:58;;;;;;;6.38;4.32;;;20.70;99.90;;;;;;6429687;23;20099;-74
2022/08/21 00:17:29;;;;;;;5.75;4.57;;;20.70;99.90;;;;;;6430236;23;20057;-74
2022/08/21 00:19:59;;;;;;;6.68;5.22;;;20.90;99.90;;;;;;6430164;23;20739;-74
2022/08/21 00:22:30;;;;;;;5.03;3.90;;;20.90;99.90;;;;;;6428926;23;20055;-74
2022/08/21 00:25:02;;;;;;;7.10;5.13;;;20.90;99.90;;;;;;6430143;23;20004;-74
2022/08/21 00:27:33;;;;;;;6.88;4.82;;;20.80;99.90;;;;;;6403432;23;20012;-76
2022/08/21 00:30:09;;;;;;;5.28;4.47;;;20.50;99.90;;;;;;6430134;23;19996;-74
2022/08/21 00:32:40;;;;;;;5.80;4.47;;;20.50;99.90;;;;;;6430000;23;20012;-74
2022/08/21 00:35:14;;;;;;;6.00;4.78;;;20.50;99.90;;;;;;6430127;23;20027;-74
2022/08/21 00:37:45;;;;;;;6.50;4.90;;;20.60;99.90;;;;;;6429890;23;20000;-73
2022/08/21 00:40:19;;;;;;;6.43;4.68;;;20.40;99.90;;;;;;6429956;23;20042;-74
2022/08/21 00:42:50;;;;;;;6.85;5.07;;;20.40;99.90;;;;;;6429688;23;20491;-76
2022/08/21 00:45:23;;;;;;;7.18;4.93;;;20.50;99.90;;;;;;6429931;23;20016;-76
2022/08/21 00:47:54;;;;;;;6.60;5.30;;;20.60;99.90;;;;;;6430113;23;20444;-76
2022/08/21 00:50:32;;;;;;;5.72;4.68;;;20.70;99.90;;;;;;6403232;23;20008;-74
2022/08/21 00:53:05;;;;;;;6.95;4.70;;;20.70;99.90;;;;;;6429744;23;20043;-74
2022/08/21 00:55:37;;;;;;;6.32;4.65;;;20.60;99.90;;;;;;6429786;23;20000;-74
2022/08/21 00:58:11;;;;;;;7.78;4.30;;;20.60;99.90;;;;;;6403127;23;20009;-73
2022/08/21 01:00:43;;;;;;;6.18;4.68;;;20.60;99.90;;;;;;6429855;23;20001;-73
2022/08/21 01:03:18;;;;;;;6.60;4.50;;;20.60;99.90;;;;;;6429590;23;20001;-76
2022/08/21 01:05:49;;;;;;;6.25;4.32;;;20.70;99.90;;;;;;6429388;23;20329;-76
2022/08/21 01:08:21;;;;;;;6.13;4.60;;;20.70;99.90;;;;;;6429898;23;20008;-76
2022/08/21 01:10:53;;;;;;;9.57;4.40;;;20.60;99.90;;;;;;6429401;23;20001;-73
2022/08/21 01:13:24;;;;;;;7.53;4.43;;;20.60;99.90;;;;;;6402887;23;20323;-76
2022/08/21 01:15:59;;;;;;;5.43;4.22;;;20.30;99.90;;;;;;6429556;23;20369;-76
2022/08/21 01:18:30;;;;;;;6.72;4.55;;;20.40;99.90;;;;;;6429512;23;20062;-76
2022/08/21 01:21:08;;;;;;;6.10;4.32;;;20.00;99.90;;;;;;6402749;23;20012;-76
2022/08/21 01:23:42;;;;;;;7.38;4.75;;;20.30;99.90;;;;;;6402523;23;20028;-76
2022/08/21 01:26:15;;;;;;;6.45;4.78;;;20.60;99.90;;;;;;6402249;23;20529;-76
2022/08/21 01:29:11;;;;;;;5.78;4.50;;;20.60;99.90;;;;;;6429537;23;20007;-76
2022/08/21 01:31:42;;;;;;;5.57;4.40;;;20.30;99.90;;;;;;6429336;23;20013;-76
2022/08/21 01:34:15;;;;;;;5.53;4.22;;;20.50;99.90;;;;;;6402822;23;20004;-76
2022/08/21 01:36:47;;;;;;;6.38;4.18;;;20.10;99.90;;;;;;6429371;23;20031;-76
2022/08/21 01:39:18;;;;;;;11.00;4.95;;;20.20;99.90;;;;;;6402988;23;20009;-76
2022/08/21 01:41:49;;;;;;;5.95;4.45;;;20.00;99.90;;;;;;6402088;23;20107;-76
2022/08/21 01:44:21;;;;;;;6.68;4.80;;;19.90;99.90;;;;;;6401580;23;20412;-76
2022/08/21 01:46:53;;;;;;;5.93;5.03;;;19.80;99.90;;;;;;6429423;23;20067;-76
2022/08/21 01:49:23;;;;;;;6.18;5.18;;;20.00;99.90;;;;;;6429246;23;20007;-76
2022/08/21 01:51:54;;;;;;;5.95;4.60;;;20.00;99.90;;;;;;6429230;23;20012;-76
2022/08/21 01:54:26;;;;;;;5.50;4.40;;;19.80;99.90;;;;;;6402974;23;20001;-76
2022/08/21 01:56:57;;;;;;;6.68;5.32;;;20.00;99.90;;;;;;6429730;23;20005;-76
2022/08/21 01:59:28;;;;;;;6.88;4.90;;;20.10;99.90;;;;;;6429845;23;20401;-76
2022/08/21 02:01:59;;;;;;;6.18;4.78;;;20.20;99.90;;;;;;6403058;23;20023;-76
2022/08/21 02:04:30;;;;;;;7.35;4.93;;;19.90;99.90;;;;;;6429723;23;19997;-76
2022/08/21 02:07:02;;;;;;;6.13;4.82;;;20.00;99.90;;;;;;6402939;23;20055;-76
2022/08/21 02:09:33;;;;;;;6.30;5.00;;;20.10;99.90;;;;;;6429450;23;20070;-74
2022/08/21 02:12:04;;;;;;;5.90;4.85;;;20.40;99.90;;;;;;6429653;23;20067;-77
2022/08/21 02:14:35;;;;;;;6.43;4.63;;;20.50;99.90;;;;;;6429674;23;20024;-76
2022/08/21 02:17:06;;;;;;;5.45;3.90;;;20.20;99.90;;;;;;6429249;23;20062;-76
2022/08/21 02:19:38;;;;;;;5.60;3.90;;;20.20;99.90;;;;;;6402753;23;20001;-76
2022/08/21 02:22:09;;;;;;;6.03;4.72;;;20.20;99.90;;;;;;6429434;23;20019;-75
2022/08/21 02:24:40;;;;;;;5.13;4.40;;;20.20;99.90;;;;;;6404993;23;20400;-75
2022/08/21 02:27:11;;;;;;;5.05;3.88;;;20.20;99.90;;;;;;6404680;23;20040;-75
2022/08/21 02:29:42;;;;;;;5.97;4.45;;;19.90;99.90;;;;;;6431210;23;20059;-76
2022/08/21 02:32:13;;;;;;;6.28;4.20;;;19.70;99.90;;;;;;6431298;23;20318;-75
2022/08/21 02:34:43;;;;;;;5.30;4.60;;;19.70;99.90;;;;;;6403930;23;20000;-75
2022/08/21 02:37:14;;;;;;;5.85;4.68;;;19.80;99.90;;;;;;6431356;23;20008;-75
2022/08/21 02:39:45;;;;;;;6.38;4.93;;;19.70;99.90;;;;;;6431283;23;20136;-75
2022/08/21 02:42:16;;;;;;;7.72;5.47;;;19.60;99.90;;;;;;6431127;23;20000;-75
2022/08/21 02:44:47;;;;;;;6.55;5.40;;;19.70;99.90;;;;;;6431142;23;20035;-75
2022/08/21 02:47:18;;;;;;;6.50;5.30;;;19.80;99.90;;;;;;6431034;23;20055;-75
2022/08/21 02:49:49;;;;;;;6.65;5.20;;;19.80;99.90;;;;;;6430624;23;20452;-76
2022/08/21 02:52:21;;;;;;;6.03;5.00;;;19.90;99.90;;;;;;6403761;23;20024;-75
2022/08/21 02:54:52;;;;;;;6.22;4.60;;;20.00;99.90;;;;;;6431229;23;20042;-76
2022/08/21 02:57:23;;;;;;;7.05;5.30;;;19.90;99.90;;;;;;6430648;23;20001;-75
2022/08/21 02:59:53;;;;;;;6.45;4.65;;;20.00;99.90;;;;;;6431234;23;20004;-76
2022/08/21 03:02:24;;;;;;;5.55;4.63;;;20.10;99.90;;;;;;6430968;23;20047;-75
2022/08/21 03:04:55;;;;;;;6.38;4.85;;;20.10;99.90;;;;;;6431129;23;20066;-75
2022/08/21 03:07:26;;;;;;;5.88;4.57;;;19.80;99.90;;;;;;6430898;23;20328;-76
2022/08/21 03:09:57;;;;;;;5.85;4.63;;;20.00;99.90;;;;;;6431026;23;20005;-76
2022/08/21 03:12:28;;;;;;;7.13;4.50;;;19.90;99.90;;;;;;6430852;23;20504;-76
2022/08/21 03:14:59;;;;;;;5.35;4.38;;;19.70;99.90;;;;;;6430889;23;20005;-76
2022/08/21 03:17:29;;;;;;;6.43;5.30;;;19.50;99.90;;;;;;6404217;23;20095;-75
2022/08/21 03:20:01;;;;;;;7.28;5.43;;;19.60;99.90;;;;;;6430870;23;20001;-76
2022/08/21 03:22:32;;;;;;;6.38;5.45;;;19.50;99.90;;;;;;6430388;23;20387;-76
2022/08/21 03:25:04;;;;;;;6.70;5.85;;;19.60;99.90;;;;;;6431085;23;20075;-75
2022/08/21 03:27:36;;;;;;;7.72;6.20;;;19.50;99.90;;;;;;6430871;23;20020;-75
2022/08/21 03:30:08;;;;;;;6.85;5.70;;;19.50;99.90;;;;;;6404284;23;20104;-76
2022/08/21 03:32:38;;;;;;;7.55;5.75;;;19.60;99.90;;;;;;6428889;23;20019;-75
2022/08/21 03:35:10;;;;;;;6.25;5.35;;;19.90;99.90;;;;;;6430744;23;20079;-75
2022/08/21 03:37:41;;;;;;;5.75;4.88;;;19.90;99.90;;;;;;6430638;23;20283;-76
2022/08/21 03:40:15;;;;;;;5.65;4.72;;;19.80;99.90;;;;;;6430722;23;20028;-75
2022/08/21 03:42:49;;;;;;;7.32;5.18;;;20.00;99.90;;;;;;6430395;23;20003;-75
2022/08/21 03:45:21;;;;;;;8.20;6.07;;;19.90;99.90;;;;;;6430882;23;20074;-75
2022/08/21 03:48:00;;;;;;;6.95;5.57;;;19.70;99.90;;;;;;6403692;23;20441;-75
2022/08/21 03:50:33;;;;;;;6.35;5.28;;;19.40;99.90;;;;;;6430188;23;20008;-75
2022/08/21 03:53:06;;;;;;;7.53;6.03;;;19.40;99.90;;;;;;6430419;23;20436;-76
2022/08/21 03:55:36;;;;;;;9.10;6.18;;;19.30;99.90;;;;;;6430591;23;20011;-75
2022/08/21 03:58:08;;;;;;;7.53;5.88;;;19.30;99.90;;;;;;6430466;23;20029;-76
2022/08/21 04:00:38;;;;;;;6.82;5.35;;;19.50;99.90;;;;;;6430346;23;20298;-75
2022/08/21 04:03:09;;;;;;;7.55;5.68;;;19.40;99.90;;;;;;6430367;23;20012;-75
2022/08/21 04:05:40;;;;;;;6.40;5.22;;;19.40;99.90;;;;;;6430516;23;20062;-76
2022/08/21 04:08:12;;;;;;;6.60;5.05;;;19.50;99.90;;;;;;6430464;23;20015;-76
2022/08/21 04:10:45;;;;;;;6.93;5.50;;;19.70;99.90;;;;;;6403841;23;20134;-75
2022/08/21 04:13:16;;;;;;;6.45;5.40;;;19.60;99.90;;;;;;6430306;23;20432;-76
2022/08/21 04:15:47;;;;;;;6.07;4.80;;;19.70;99.90;;;;;;6430524;23;20004;-76
2022/08/21 04:18:18;;;;;;;7.78;5.53;;;19.80;99.90;;;;;;6430431;23;20011;-75
2022/08/21 04:20:51;;;;;;;6.63;5.80;;;19.70;99.90;;;;;;6430362;23;20001;-75
2022/08/21 04:23:22;;;;;;;7.72;5.35;;;19.90;99.90;;;;;;6429856;23;20353;-75
2022/08/21 04:25:55;;;;;;;6.45;5.20;;;20.00;99.90;;;;;;6403864;23;20012;-76
2022/08/21 04:28:27;;;;;;;5.90;4.85;;;20.00;99.90;;;;;;6430196;23;20079;-76
2022/08/21 04:30:58;;;;;;;6.70;5.28;;;20.10;99.90;;;;;;6430239;23;20073;-75
2022/08/21 04:33:29;;;;;;;5.70;5.07;;;20.20;99.90;;;;;;6429199;23;20080;-76
2022/08/21 04:36:00;;;;;;;5.78;4.68;;;20.10;99.90;;;;;;6430259;23;20008;-75
2022/08/21 04:38:31;;;;;;;7.57;5.13;;;20.30;99.90;;;;;;6403922;23;20005;-75
2022/08/21 04:41:02;;;;;;;6.57;5.03;;;20.40;99.90;;;;;;6430254;23;20076;-75
2022/08/21 04:43:33;;;;;;;7.15;5.20;;;20.60;99.90;;;;;;6429916;23;20431;-75
2022/08/21 04:46:05;;;;;;;7.07;5.28;;;20.80;99.90;;;;;;6429595;23;20013;-75
2022/08/21 04:48:36;;;;;;;6.07;5.10;;;20.70;99.90;;;;;;6430000;23;20072;-75
2022/08/21 04:51:22;;;;;;;6.75;5.43;;;20.90;99.90;;;;;;6403279;23;20030;-75
2022/08/21 04:54:06;;;;;;;6.05;5.05;;;21.30;99.90;;;;;;6429864;23;20095;-75
2022/08/21 04:56:45;;;;;;;9.07;5.22;;;21.20;99.90;;;;;;6430221;23;20079;-75
2022/08/21 04:59:20;;;;;;;6.10;5.18;;;21.50;99.90;;;;;;6430084;23;20409;-75
2022/08/21 05:01:53;;;;;;;6.50;5.53;;;21.70;99.90;;;;;;6429959;23;20039;-75
2022/08/21 05:04:28;;;;;;;7.80;5.47;;;21.90;99.90;;;;;;6429958;23;20012;-75
2022/08/21 05:07:03;;;;;;;7.25;5.30;;;22.10;99.90;;;;;;6429799;23;20008;-75
2022/08/21 05:09:34;;;;;;;8.65;5.95;;;22.10;99.90;;;;;;6430009;23;20004;-75
2022/08/21 05:12:05;;;;;;;12.15;7.82;;;22.20;99.90;;;;;;6403054;23;20480;-76
2022/08/21 05:14:36;;;;;;;11.52;8.88;;;22.10;99.90;;;;;;6403149;23;20086;-76
2022/08/21 05:17:08;;;;;;;11.75;9.75;;;22.10;99.90;;;;;;6430314;23;20001;-76
2022/08/21 05:19:39;;;;;;;10.35;8.70;;;22.20;99.90;;;;;;6429803;23;20329;-75
2022/08/21 05:22:10;;;;;;;10.48;6.90;;;22.20;99.90;;;;;;6429557;23;20087;-76
2022/08/21 05:24:41;;;;;;;10.13;7.05;;;22.40;99.90;;;;;;6429846;23;20004;-75
2022/08/21 05:27:12;;;;;;;7.13;6.10;;;22.60;99.90;;;;;;6429835;23;20023;-75
2022/08/21 05:29:43;;;;;;;9.05;5.85;;;22.60;99.90;;;;;;6429459;23;20086;-75
2022/08/21 05:32:14;;;;;;;8.43;6.35;;;22.90;99.90;;;;;;6429886;23;20004;-76
2022/08/21 05:34:46;;;;;;;11.82;7.50;;;23.00;99.90;;;;;;6429609;23;20071;-74
2022/08/21 05:37:17;;;;;;;8.48;7.10;;;23.10;99.90;;;;;;6429458;23;20001;-74
2022/08/21 05:39:48;;;;;;;8.90;6.97;;;23.30;99.90;;;;;;6429829;23;20066;-74
2022/08/21 05:42:18;;;;;;;8.85;7.22;;;23.30;99.90;;;;;;6430089;23;20015;-74
2022/08/21 05:44:49;;;;;;;13.38;7.43;;;23.30;99.90;;;;;;6429449;23;20471;-73
2022/08/21 05:47:20;;;;;;;11.20;8.15;;;23.40;99.90;;;;;;6429998;23;20052;-74
2022/08/21 05:49:50;;;;;;;11.43;8.10;;;23.50;99.90;;;;;;6429340;23;20004;-74
2022/08/21 05:52:21;;;;;;;13.13;9.30;;;23.70;99.90;;;;;;6429485;23;20022;-74
2022/08/21 05:54:53;;;;;;;13.85;8.65;;;23.90;99.90;;;;;;6429390;23;20000;-74
2022/08/21 05:57:25;;;;;;;11.55;7.75;;;24.10;99.90;;;;;;6429396;23;20003;-73
2022/08/21 05:59:56;;;;;;;10.43;7.28;;;24.20;99.90;;;;;;6429509;23;20001;-73
2022/08/21 06:02:26;;;;;;;8.05;6.03;;;24.20;99.90;;;;;;6429644;23;20072;-73
2022/08/21 06:04:57;;;;;;;9.25;6.30;;;24.40;99.90;;;;;;6429420;23;20008;-73
2022/08/21 06:07:28;;;;;;;8.57;6.75;;;24.50;99.90;;;;;;6429307;23;20017;-74
2022/08/21 06:09:59;;;;;;;8.60;5.70;;;24.50;99.90;;;;;;6429239;23;20000;-74
2022/08/21 06:12:30;;;;;;;10.10;5.68;;;24.60;99.90;;;;;;6429225;23;20016;-74
2022/08/21 06:15:01;;;;;;;6.03;4.57;;;24.70;99.90;;;;;;6429667;23;20075;-73
2022/08/21 06:17:31;;;;;;;6.15;4.30;;;24.80;99.90;;;;;;6429280;23;20016;-73
2022/08/21 06:20:04;;;;;;;10.73;4.97;;;24.90;99.90;;;;;;6428985;23;20428;-73
2022/08/21 06:22:35;;;;;;;7.60;4.70;;;25.00;99.90;;;;;;6428876;23;20016;-73
2022/08/21 06:25:06;;;;;;;5.18;4.68;;;25.10;99.90;;;;;;6429626;23;20007;-73
2022/08/21 06:27:37;;;;;;;4.75;4.07;;;25.40;99.90;;;;;;6429343;23;20062;-73
2022/08/21 06:30:08;;;;;;;7.32;4.38;;;25.40;99.90;;;;;;6429102;23;20009;-73
2022/08/21 06:32:39;;;;;;;7.75;4.38;;;25.40;99.90;;;;;;6429909;23;20009;-74
2022/08/21 06:35:11;;;;;;;4.70;3.92;;;25.30;99.90;;;;;;6429082;23;20065;-73
2022/08/21 06:37:42;;;;;;;5.70;4.50;;;25.10;99.90;;;;;;6429330;23;20009;-73
2022/08/21 06:40:12;;;;;;;5.80;4.63;;;25.20;99.90;;;;;;6429831;23;20012;-73
2022/08/21 06:42:43;;;;;;;5.85;4.72;;;25.10;99.90;;;;;;6429131;23;20084;-73
2022/08/21 06:45:14;;;;;;;6.97;4.47;;;25.30;99.90;;;;;;6429483;23;20023;-73
2022/08/21 06:47:45;;;;;;;5.28;4.40;;;25.40;99.90;;;;;;6428849;23;20333;-73
2022/08/21 06:50:16;;;;;;;6.60;4.80;;;25.50;99.90;;;;;;6429014;23;19997;-73
2022/08/21 06:52:46;;;;;;;5.78;4.47;;;25.60;99.90;;;;;;6428885;23;20020;-73
2022/08/21 06:55:17;;;;;;;5.45;4.63;;;25.60;99.90;;;;;;6429770;23;20001;-73
2022/08/21 06:57:48;;;;;;;5.97;4.40;;;25.60;99.90;;;;;;6429199;23;20007;-73
2022/08/21 07:00:19;;;;;;;5.80;4.15;;;26.10;99.90;;;;;;6429704;23;20059;-73
2022/08/21 07:02:51;;;;;;;5.05;3.80;;;26.30;99.90;;;;;;6429056;23;20019;-73
2022/08/21 07:05:24;;;;;;;4.47;3.53;;;26.30;99.90;;;;;;6429014;23;20008;-73
2022/08/21 07:07:56;;;;;;;5.47;3.78;;;26.40;99.90;;;;;;6429740;23;20383;-73
2022/08/21 07:10:27;;;;;;;4.18;2.97;;;26.40;99.90;;;;;;6431519;23;20066;-73
2022/08/21 07:12:58;;;;;;;4.47;3.65;;;26.10;99.90;;;;;;6430908;23;20372;-73
2022/08/21 07:15:29;;;;;;;5.95;4.32;;;26.10;99.90;;;;;;6431204;23;20004;-73
2022/08/21 07:18:00;;;;;;;5.85;4.10;;;26.30;99.90;;;;;;6430991;23;20011;-73
2022/08/21 07:20:32;;;;;;;4.75;3.20;;;26.40;99.90;;;;;;6431302;23;20019;-73
2022/08/21 07:23:07;;;;;;;5.18;3.33;;;26.90;99.90;;;;;;6430784;23;20048;-74
2022/08/21 07:25:39;;;;;;;3.78;3.17;;;27.00;99.90;;;;;;6430842;23;20035;-73
2022/08/21 07:28:10;;;;;;;6.43;3.38;;;26.60;99.90;;;;;;6430757;23;20015;-73
2022/08/21 07:30:41;;;;;;;4.82;3.67;;;26.30;99.90;;;;;;6431132;23;19997;-73
2022/08/21 07:33:12;;;;;;;6.47;3.78;;;26.30;99.90;;;;;;6430498;23;20059;-73
2022/08/21 07:35:42;;;;;;;6.43;3.95;;;26.30;99.90;;;;;;6430627;23;20032;-73
2022/08/21 07:38:13;;;;;;;4.32;3.65;;;26.30;99.90;;;;;;6430021;23;20008;-73
2022/08/21 07:40:44;;;;;;;5.88;3.58;;;26.20;99.90;;;;;;6431013;23;20001;-73
2022/08/21 07:43:16;;;;;;;9.30;4.00;;;26.30;99.90;;;;;;6430874;23;20008;-73
2022/08/21 07:45:49;;;;;;;3.63;3.22;;;26.70;99.90;;;;;;6430706;23;20008;-73
2022/08/21 07:48:21;;;;;;;5.30;3.50;;;26.90;99.90;;;;;;6430031;23;20216;-74
2022/08/21 07:50:52;;;;;;;3.42;3.05;;;26.90;99.90;;;;;;6430450;23;20428;-74
2022/08/21 07:53:22;;;;;;;4.00;3.15;;;26.90;99.90;;;;;;6430664;23;20012;-72
2022/08/21 07:55:57;;;;;;;4.63;3.00;;;26.90;99.90;;;;;;6430440;23;20004;-74
2022/08/21 07:58:28;;;;;;;3.85;2.63;;;26.80;99.90;;;;;;6430477;23;20008;-74
2022/08/21 08:00:59;;;;;;;4.13;3.28;;;26.80;99.90;;;;;;6430527;23;20480;-74
2022/08/21 08:03:30;;;;;;;3.28;2.70;;;26.80;99.90;;;;;;6431046;23;20009;-73
2022/08/21 08:06:04;;;;;;;4.90;2.83;;;26.90;99.90;;;;;;6430613;23;20011;-74
2022/08/21 08:08:34;;;;;;;3.78;2.30;;;27.70;99.90;;;;;;6431090;23;20500;-75
2022/08/21 08:11:05;;;;;;;4.85;2.90;;;27.20;99.90;;;;;;6430544;23;20035;-75
2022/08/21 08:13:46;;;;;;;3.50;2.35;;;27.00;99.90;;;;;;6430273;23;20005;-74
2022/08/21 08:16:17;;;;;;;2.60;2.05;;;26.90;99.90;;;;;;6430357;23;20010;-75
2022/08/21 08:18:48;;;;;;;3.25;2.40;;;27.00;99.90;;;;;;6430805;23;20008;-74
2022/08/21 08:21:20;;;;;;;3.38;2.70;;;26.90;99.90;;;;;;6430046;23;20100;-74
2022/08/21 08:23:51;;;;;;;3.00;2.60;;;26.80;99.90;;;;;;6430032;23;20103;-74
2022/08/21 08:26:22;;;;;;;7.10;3.22;;;26.60;99.90;;;;;;6430799;23;20311;-74
2022/08/21 08:28:53;;;;;;;5.82;3.17;;;26.60;99.90;;;;;;6430539;23;20118;-75
2022/08/21 08:31:24;;;;;;;4.95;2.78;;;26.50;99.90;;;;;;6430899;23;20440;-75
2022/08/21 08:33:55;;;;;;;3.00;2.70;;;26.60;99.90;;;;;;6430257;23;20004;-75
2022/08/21 08:36:34;;;;;;;3.92;2.92;;;26.70;99.90;;;;;;6429852;23;20007;-75
2022/08/21 08:39:09;;;;;;;3.13;2.60;;;26.70;99.90;;;;;;6430170;23;20016;-75
2022/08/21 08:41:43;;;;;;;5.03;3.35;;;26.60;99.90;;;;;;6402786;23;20091;-75
2022/08/21 08:44:13;;;;;;;5.18;3.85;;;26.70;99.90;;;;;;6429805;23;20000;-75
2022/08/21 08:46:50;;;;;;;14.48;3.83;;;26.60;99.90;;;;;;6429421;23;20005;-75
2022/08/21 08:49:34;;;;;;;5.63;3.22;;;26.70;99.90;;;;;;6429403;23;20008;-75
2022/08/21 08:52:22;;;;;;;11.07;4.00;;;26.70;99.90;;;;;;6429533;23;20013;-75
2022/08/21 08:55:11;;;;;;;3.90;3.13;;;26.80;99.90;;;;;;6429569;23;20005;-75
2022/08/21 08:57:45;;;;;;;4.95;3.17;;;27.30;99.90;;;;;;6429321;23;20362;-75
2022/08/21 09:00:20;;;;;;;5.38;3.28;;;27.30;99.90;;;;;;6409771;23;20004;-75
2022/08/21 09:02:59;;;;;;;4.47;3.47;;;27.40;99.90;;;;;;6396658;23;20009;-74
2022/08/21 09:05:45;;;;;;;4.82;3.50;;;27.10;99.90;;;;;;6429195;23;20004;-75
2022/08/21 09:08:36;;;;;;;6.43;3.35;;;27.30;99.90;;;;;;6429211;23;20076;-74
2022/08/21 09:11:34;;;;;;;4.47;3.05;;;27.90;99.90;;;;;;6428486;23;20007;-74
2022/08/21 09:14:29;;;;;;;3.75;3.33;;;27.20;99.90;;;;;;6428781;23;20004;-74
2022/08/21 09:17:07;;;;;;;3.45;2.67;;;26.80;99.90;;;;;;6428800;23;20004;-74
2022/08/21 09:20:09;;;;;;;4.57;2.92;;;26.90;99.90;;;;;;6428983;23;20016;-74
2022/08/21 09:22:48;;;;;;;4.53;3.03;;;26.90;99.90;;;;;;6428334;23;20132;-74
2022/08/21 09:25:30;;;;;;;5.57;2.80;;;26.90;99.90;;;;;;6428727;23;20504;-74
2022/08/21 09:28:01;;;;;;;4.38;3.25;;;26.90;99.90;;;;;;6428694;23;20016;-74
2022/08/21 09:30:32;;;;;;;4.00;2.60;;;27.20;99.90;;;;;;6428146;23;20008;-74
2022/08/21 09:33:03;;;;;;;4.40;3.00;;;27.10;99.90;;;;;;6428467;23;20012;-75
2022/08/21 09:35:36;;;;;;;3.97;2.97;;;27.50;99.90;;;;;;6429198;23;20001;-74
2022/08/21 09:38:08;;;;;;;3.92;2.90;;;27.60;99.90;;;;;;6429109;23;20046;-75
2022/08/21 09:40:44;;;;;;;3.58;2.53;;;27.60;99.90;;;;;;6428623;23;20009;-74
2022/08/21 09:43:18;;;;;;;5.60;3.00;;;27.40;99.90;;;;;;6428776;23;19997;-74
2022/08/21 09:46:11;;;;;;;7.07;3.25;;;28.40;99.90;;;;;;6428613;23;20389;-74
2022/08/21 09:48:47;;;;;;;3.42;2.75;;;28.10;99.90;;;;;;6401701;23;20096;-74
2022/08/21 09:51:22;;;;;;;3.03;2.58;;;27.60;99.90;;;;;;6428594;23;20005;-74
2022/08/21 09:54:06;;;;;;;4.28;2.65;;;28.00;99.90;;;;;;6428219;23;20083;-73
2022/08/21 09:59:48;;;;;;;3.40;2.50;;;28.10;99.90;;;;;;6428347;23;20051;-75
2022/08/21 10:02:22;;;;;;;7.65;3.28;;;27.80;99.90;;;;;;6428363;23;20000;-74
2022/08/21 10:04:57;;;;;;;6.55;3.65;;;27.70;99.90;;;;;;6428275;23;20005;-74
2022/08/21 10:07:32;;;;;;;7.30;3.95;;;27.70;99.90;;;;;;6428270;23;20086;-74
2022/08/21 10:10:32;;;;;;;4.57;3.45;;;28.00;99.90;;;;;;6428125;23;20008;-75
2022/08/21 10:13:12;;;;;;;;;;;27.90;99.90;;;;;;6423545;23;20009;-74
2022/08/21 10:16:28;;;;;;;4.68;3.40;;;27.60;99.90;;;;;;6428278;23;20276;-74
2022/08/21 10:19:09;;;;;;;7.18;3.90;;;27.40;99.90;;;;;;6428514;23;20070;-74
2022/08/21 10:22:02;;;;;;;3.97;3.08;;;27.30;99.90;;;;;;6428215;23;20012;-74
2022/08/21 10:24:56;;;;;;;6.03;3.70;;;27.40;99.90;;;;;;6428721;23;20024;-74
2022/08/21 10:27:29;;;;;;;5.97;2.92;;;27.30;99.90;;;;;;6427941;23;20013;-74
2022/08/21 10:30:14;;;;;;;4.32;3.17;;;27.10;99.90;;;;;;6428267;23;20060;-74
2022/08/21 10:32:54;;;;;;;5.10;3.75;;;27.00;99.90;;;;;;6427985;23;20000;-74
2022/08/21 10:35:32;;;;;;;3.50;3.08;;;27.10;99.90;;;;;;6428069;23;20032;-74
2022/08/21 10:38:11;;;;;;;6.88;3.47;;;27.30;99.90;;;;;;6428187;23;20380;-74
2022/08/21 10:41:10;;;;;;;3.17;2.75;;;27.80;99.90;;;;;;6428094;23;20072;-75
2022/08/21 10:43:50;;;;;;;4.65;3.20;;;27.90;99.90;;;;;;6429113;23;20009;-75
2022/08/21 10:46:37;;;;;;;3.63;3.05;;;27.90;99.90;;;;;;6430096;23;20040;-73
2022/08/21 10:49:35;;;;;;;6.25;2.88;;;27.80;99.90;;;;;;6430147;23;20013;-74
2022/08/21 10:52:28;;;;;;;5.03;3.25;;;27.40;99.90;;;;;;6430003;23;20016;-75
2022/08/21 10:55:17;;;;;;;4.15;3.17;;;27.20;99.90;;;;;;6430208;23;20004;-74
2022/08/21 10:58:00;;;;;;;3.60;2.85;;;27.40;99.90;;;;;;6430590;23;20009;-74
2022/08/21 11:00:42;;;;;;;5.32;2.78;;;27.60;99.90;;;;;;6430241;23;20031;-74
2022/08/21 11:03:36;;;;;;;7.13;3.45;;;27.90;99.90;;;;;;6430412;23;20417;-74
2022/08/21 11:06:21;;;;;;;3.85;3.05;;;27.80;99.90;;;;;;6429117;23;20012;-74
2022/08/21 11:09:11;;;;;;;3.50;2.83;;;28.60;99.90;;;;;;6430500;23;20425;-74
2022/08/21 11:12:01;;;;;;;63.13;7.97;;;28.60;99.90;;;;;;6430557;23;20001;-74
2022/08/21 11:14:52;;;;;;;20.25;4.78;;;28.30;99.90;;;;;;6429941;23;20005;-74
2022/08/21 11:17:35;;;;;;;9.68;4.05;;;28.00;99.90;;;;;;6430048;23;20503;-74
2022/08/21 11:20:45;;;;;;;5.45;3.10;;;28.10;99.90;;;;;;6429962;23;20000;-74
2022/08/21 11:23:23;;;;;;;4.82;2.88;;;28.30;99.90;;;;;;6429482;23;20023;-74
2022/08/21 11:26:01;;;;;;;3.33;2.70;;;29.10;99.90;;;;;;6403075;23;20013;-74
2022/08/21 11:29:01;;;;;;;3.40;2.50;;;29.70;99.90;;;;;;6429740;23;20092;-74
2022/08/21 11:32:04;;;;;;;5.38;2.60;;;29.30;99.90;;;;;;6416362;23;20679;-74
2022/08/21 11:34:59;;;;;;;4.68;2.30;;;29.70;99.90;;;;;;6372671;23;20039;-74
2022/08/21 11:37:56;;;;;;;2.90;2.58;;;29.20;99.90;;;;;;6429629;23;20000;-74
2022/08/21 11:41:02;;;;;;;3.67;2.50;;;28.70;99.90;;;;;;6429471;23;20488;-74
2022/08/21 11:43:38;;;;;;;2.97;2.65;;;29.10;99.90;;;;;;6429299;23;20001;-75
2022/08/21 11:46:32;;;;;;;4.43;3.17;;;28.30;99.90;;;;;;6429265;23;20000;-75
2022/08/21 11:49:23;;;;;;;6.43;3.13;;;28.30;99.90;;;;;;6429515;23;20437;-74
2022/08/21 11:52:31;;;;;;;5.65;2.90;;;28.60;99.90;;;;;;6428992;23;20024;-74
2022/08/21 11:55:12;;;;;;;2.97;2.47;;;28.10;99.90;;;;;;6409022;23;20009;-74
2022/08/21 11:58:02;;;;;;;5.20;3.00;;;27.90;99.90;;;;;;6429360;23;20062;-73
2022/08/21 12:00:38;;;;;;;3.55;2.90;;;29.00;99.90;;;;;;6429696;23;20005;-74
2022/08/21 12:03:16;;;;;;;3.03;2.72;;;28.50;99.90;;;;;;6429418;23;20012;-74
2022/08/21 12:05:58;;;;;;;3.30;2.80;;;29.10;99.90;;;;;;6429350;23;20047;-74
2022/08/21 12:08:44;;;;;;;2.92;2.45;;;29.90;99.90;;;;;;6429533;23;20016;-74
2022/08/21 12:11:18;;;;;;;4.53;2.80;;;29.20;99.90;;;;;;6429638;23;20004;-75
2022/08/21 12:14:11;;;;;;;4.38;3.00;;;29.00;99.90;;;;;;6429989;23;20329;-74
2022/08/21 12:16:45;;;;;;;3.92;2.65;;;29.70;99.90;;;;;;6429787;23;20392;-74
2022/08/21 12:19:19;;;;;;;5.53;3.03;;;30.00;99.90;;;;;;6429827;23;20028;-74
2022/08/21 12:22:05;;;;;;;4.82;2.80;;;29.60;99.90;;;;;;6429429;23;20074;-74
2022/08/21 12:24:50;;;;;;;3.47;2.55;;;29.20;99.90;;;;;;6429381;23;20456;-74
2022/08/21 12:27:27;;;;;;;5.32;2.95;;;28.60;99.90;;;;;;6429287;23;20498;-75
2022/08/21 12:30:20;;;;;;;4.43;3.10;;;28.40;99.90;;;;;;6429285;23;20007;-75
2022/08/21 12:33:00;;;;;;;7.13;3.75;;;28.60;99.90;;;;;;6429769;23;20413;-75
2022/08/21 12:35:37;;;;;;;3.65;2.60;;;29.10;99.90;;;;;;6429148;23;20007;-75
2022/08/21 12:38:28;;;;;;;4.15;2.80;;;29.10;99.90;;;;;;6429530;23;20004;-75
2022/08/21 12:41:15;;;;;;;3.70;2.80;;;28.80;99.90;;;;;;6429640;23;20142;-75
2022/08/21 12:44:00;;;;;;;10.80;2.85;;;28.50;99.90;;;;;;6429324;23;20370;-76
2022/08/21 12:46:48;;;;;;;3.85;2.72;;;28.60;99.90;;;;;;6429289;23;20332;-76
2022/08/21 12:49:27;;;;;;;5.75;3.08;;;29.10;99.90;;;;;;6429469;23;20099;-76
2022/08/21 12:52:22;;;;;;;3.45;2.70;;;28.80;99.90;;;;;;6429239;23;20027;-76
2022/08/21 12:54:53;;;;;;;4.60;2.95;;;28.80;99.90;;;;;;6429230;23;20015;-75
2022/08/21 12:57:27;;;;;;;3.40;2.63;;;28.80;99.90;;;;;;6428755;23;20000;-76
2022/08/21 13:00:03;;;;;;;5.95;2.60;;;29.20;99.90;;;;;;6429072;23;20005;-77
2022/08/21 13:02:39;;;;;;;3.28;2.70;;;29.90;99.90;;;;;;6429097;23;20000;-75
2022/08/21 13:05:14;;;;;;;4.63;2.47;;;29.60;99.90;;;;;;6428864;23;20417;-76
2022/08/21 13:07:47;;;;;;;3.83;2.67;;;29.30;99.90;;;;;;6428897;23;20012;-75
2022/08/21 13:10:23;;;;;;;5.32;2.53;;;28.50;99.90;;;;;;6429074;23;20031;-75
2022/08/21 13:12:57;;;;;;;3.42;2.65;;;29.30;99.90;;;;;;6428617;23;20004;-75
2022/08/21 13:15:32;;;;;;;3.63;2.60;;;29.60;99.90;;;;;;6401613;23;20015;-76
2022/08/21 13:18:05;;;;;;;2.95;2.63;;;29.10;99.90;;;;;;6428242;23;20008;-76
2022/08/21 13:20:41;;;;;;;3.50;2.78;;;28.50;99.90;;;;;;6428400;23;20008;-75
2022/08/21 13:23:26;;;;;;;5.50;2.60;;;28.40;99.90;;;;;;6428008;23;20013;-75
2022/08/21 13:25:57;;;;;;;3.95;2.65;;;28.40;99.90;;;;;;6427727;23;20058;-75
2022/08/21 13:28:37;;;;;;;4.75;3.20;;;29.00;99.90;;;;;;6428931;23;20344;-75
2022/08/21 13:31:10;;;;;;;4.68;2.47;;;29.20;99.90;;;;;;6429398;23;20091;-75
2022/08/21 13:33:41;;;;;;;3.20;2.50;;;29.60;99.90;;;;;;6428817;23;20436;-75